Hyannis, MA

1:27 PM EDT on August 22, 2014 (GMT -0400)
Cape Cod Coast Guard Air Station | Change Station
CLOSE
Current Station
Airport
Location: Cape Cod CGAS,
Elevation: 131 ft
Nearby Weather Stations

Elev 131 ft 41.66 °N, 70.52 °W | Updated 12 minutes ago

Mostly Cloudy
Mostly Cloudy
70 °F
Feels Like 70 °F
N
6
Wind Variable Wind from NE

Today
High -- | Low -- °F
--% Chance of Precip.
Yesterday
High -- | Low -- °F
Precip. -- in
5:56 AM 7:30 PM
Waning Crescent, 7% visible
Pressure 30.08 in
Visibility 10.0 miles
Clouds Mostly Cloudy 7500 ft
Dew Point 61 °F
Humidity 73%
Rainfall 0.00 in
Snow Depth Not available.
UV 5 out of 12
Pollen 6.00 out of 12
Air Quality Not available.
Flu Activity Not available.
METAR KFMH 221715Z AUTO 04005KT 10SM BKN075 21/16 A3008 RMK AO2

More Conditions Fewer Conditions

Pressure 30.08 in
Visibility 10.0 miles
Clouds Mostly Cloudy 7500 ft
Dew Point 61 °F
Humidity 73%
Rainfall 0.00 in
Snow Depth Not available.
UV 5 out of 12
Pollen 6.00 out of 12
Air Quality Not available.
Flu Activity Not available.
METAR KFMH 221715Z AUTO 04005KT 10SM BKN075 21/16 A3008 RMK AO2

More Conditions Fewer Conditions

10-Day Weather Forecast

Almanac

Astronomy

Aug. 22, 2014 Rise Set
Actual Time 5:56 AM EDT 7:30 PM EDT
Civil Twilight 5:27 AM EDT 7:59 PM EDT
Nautical Twilight 4:52 AM EDT 8:34 PM EDT
Astronomical Twilight 4:14 AM EDT 9:12 PM EDT
Moon 3:15 AM EDT 5:37 PM EDT
Length of Visible Light 14h 32m
Length of Day
13h 33m
Tomorrow will be 2m 35s shorter.
Waning Crescent, 7% of the Moon is Illuminated
Today
Waning Crescent
Aug 25
New
Sep 2
First Quarter
Sep 8
Full
Sep 15
Last Quarter

Today's Extremes

State Highs State Lows

Community

WunderPhotos

Upload Photos

1,746,205 photos uploaded!

Nearby

Air Quality

  Air Quality AQ Index Pollutant
Yesterday Good
OZONE
Friday Good
PM2.5
Friday Good
OZONE

Snow Depth

Station Depth Elevation
No new snow has been reported.

Earthquake Activity

City Distance Mag. Time & Date
No recent earthquake activity has been reported nearby.
Minimum magnitude displayed is 2.5.

Coastal Water Temperatures

Place Temperature
Nantucket Island, MA 73.0 °F
Woods Hole, MA 70.0 °F
Fall River, MA 73.0 °F
Boston, MA 66.9 °F

Nearby Weather Stations